Terminal Aerodrome Forecast
Issued by NWS

Home | Current Version | Previous Version | Text Only | Print | Product List | Glossary On
Versions: 1 2 3 4 5 6 7 8 9 10 11 12 13 14
000
FTUS42 KTAE 301722
TAFVLD
TAF
KVLD 301722Z 3018/3118 10006KT P6SM SCT050
     FM302200 11005KT P6SM VCTS SCT025CB BKN050
     FM310200 00000KT P6SM SCT060
     FM310900 00000KT 3SM BR SCT002
     FM311300 14004KT P6SM SCT035=

USA.gov is the U.S. government's official web portal to all federal, state and local government web resources and services.